Time;durP1;ratioP1;P1;durP2;ratioP2;P2;SDS_P1;SDS_P2;PMS_P1;PMS_P2;Temp;Humidity;BMP_temperature;BMP_pressure;BME280_temperature;BME280_humidity;BME280_pressure;Samples;Min_cycle;Max_cycle;Signal;HPM_P1;HPM_P2
2023/02/05 00:01:06;;;;;;;20.77;7.93;;;;;;;2.14;64.52;102021.69;10379493;28;20250;-64
2023/02/05 00:06:07;;;;;;;21.23;7.82;;;;;;;2.29;64.27;102026.97;10386813;28;20062;-64
2023/02/05 00:11:09;;;;;;;24.10;7.68;;;;;;;2.35;64.31;102021.84;10378062;28;20398;-64
2023/02/05 00:16:14;;;;;;;20.67;8.35;;;;;;;2.48;64.26;102009.88;10380192;28;20060;-64
2023/02/05 00:21:20;;;;;;;20.13;7.60;;;;;;;2.60;64.06;102013.38;10373945;28;20173;-64
2023/02/05 00:26:22;;;;;;;22.40;7.88;;;;;;;2.73;63.71;102003.97;10379341;28;20414;-64
2023/02/05 00:31:24;;;;;;;22.05;7.05;;;;;;;2.74;64.01;101988.50;10376892;28;20053;-64
2023/02/05 00:36:26;;;;;;;19.52;7.32;;;;;;;2.64;63.77;101991.03;10377838;28;20410;-64
2023/02/05 00:41:28;;;;;;;21.73;7.45;;;;;;;2.56;64.02;101982.38;10381848;28;20050;-64
2023/02/05 00:46:29;;;;;;;22.73;7.38;;;;;;;2.73;64.10;101973.84;10376725;28;20056;-64
2023/02/05 00:51:31;;;;;;;21.02;6.60;;;;;;;2.87;63.91;101964.44;10390608;28;20406;-64
2023/02/05 00:56:33;;;;;;;20.10;6.85;;;;;;;2.97;63.58;101961.03;10381191;28;20042;-65
2023/02/05 01:01:34;;;;;;;21.08;7.30;;;;;;;3.03;63.26;101961.03;10373064;28;20061;-65
2023/02/05 01:06:36;;;;;;;22.35;7.10;;;;;;;2.91;63.52;101949.78;10383856;28;20099;-64
2023/02/05 01:11:38;;;;;;;23.55;7.65;;;;;;;2.80;63.37;101943.75;10385226;28;20054;-65
2023/02/05 01:16:39;;;;;;;24.95;7.18;;;;;;;2.86;63.80;101943.75;10385922;28;20053;-64
2023/02/05 01:21:41;;;;;;;22.25;7.22;;;;;;;3.05;63.61;101937.78;10386293;28;20408;-64
2023/02/05 01:26:43;;;;;;;16.77;6.85;;;;;;;3.05;63.47;101930.03;10377943;28;20498;-64
2023/02/05 01:31:44;;;;;;;21.27;7.30;;;;;;;3.11;63.47;101921.44;10375375;28;20045;-64
2023/02/05 01:36:46;;;;;;;27.73;7.65;;;;;;;3.01;63.52;101921.41;10371925;28;20045;-64
2023/02/05 01:41:48;;;;;;;19.08;7.80;;;;;;;2.94;63.64;101919.69;10375675;28;20493;-64
2023/02/05 01:46:53;;;;;;;24.38;7.97;;;;;;;3.02;63.85;101911.94;10374029;28;20042;-65
2023/02/05 01:52:01;;;;;;;28.35;8.52;;;;;;;3.13;63.67;101909.38;10373500;28;20041;-64
2023/02/05 01:57:08;;;;;;;21.20;7.55;;;;;;;3.07;63.69;101886.09;10374189;28;20065;-64
2023/02/05 02:02:10;;;;;;;19.60;7.70;;;;;;;3.02;63.64;101892.13;10375486;28;20064;-65
2023/02/05 02:07:15;;;;;;;28.38;8.00;;;;;;;3.03;63.74;101888.66;10372483;28;20301;-64
2023/02/05 02:12:29;;;;;;;18.42;7.38;;;;;;;3.13;63.88;101865.44;10375207;28;20068;-64
2023/02/05 02:17:39;;;;;;;19.02;6.65;;;;;;;3.15;63.81;101884.41;10372814;28;20188;-64
2023/02/05 02:23:45;;;;;;;24.95;7.65;;;;;;;3.21;63.98;101862.00;10373272;28;20045;-64
2023/02/05 02:28:57;;;;;;;17.40;7.63;;;;;;;3.31;63.67;101837.00;10326094;28;20053;-64
2023/02/05 02:34:10;;;;;;;21.77;7.53;;;;;;;3.35;63.43;101842.19;10365755;28;20409;-64
2023/02/05 02:39:25;;;;;;;23.63;7.72;;;;;;;3.20;63.56;101844.75;10372194;28;20485;-64
2023/02/05 02:44:36;;;;;;;23.90;8.25;;;;;;;3.30;63.63;101845.59;10372347;28;20521;-64
2023/02/05 02:49:43;;;;;;;17.30;8.35;;;;;;;3.23;63.44;101847.34;10374763;28;20050;-64
2023/02/05 02:54:49;;;;;;;20.85;7.53;;;;;;;3.20;63.82;101841.28;10372625;28;20050;-64
2023/02/05 02:59:54;;;;;;;21.90;8.10;;;;;;;3.16;63.70;101847.31;10375414;28;20054;-64
2023/02/05 03:05:00;;;;;;;21.80;8.60;;;;;;;3.15;63.98;101845.63;10374219;28;20050;-64
2023/02/05 03:10:43;;;;;;;21.55;8.98;;;;;;;3.28;63.88;101831.81;10379779;28;20579;-64
2023/02/05 03:15:46;;;;;;;21.55;8.88;;;;;;;3.41;63.61;101828.38;10377754;28;20403;-64
2023/02/05 03:20:55;;;;;;;23.40;8.00;;;;;;;3.44;63.86;101811.13;10380324;28;20049;-64
2023/02/05 03:25:58;;;;;;;24.42;8.77;;;;;;;3.35;63.52;101818.91;10379533;28;20049;-64
2023/02/05 03:31:12;;;;;;;21.67;8.38;;;;;;;3.17;64.25;101844.78;10389864;28;20045;-64
2023/02/05 03:36:33;;;;;;;22.45;8.80;;;;;;;3.14;64.61;101844.75;10382822;28;20072;-64
2023/02/05 03:42:04;;;;;;;25.23;8.73;;;;;;;3.07;64.62;101855.94;10388806;28;20045;-64
2023/02/05 03:47:26;;;;;;;24.90;9.10;;;;;;;3.04;64.66;101849.06;10384792;28;20624;-65
2023/02/05 03:52:34;;;;;;;23.77;9.25;;;;;;;3.15;64.64;101845.63;10374112;28;20052;-65
2023/02/05 03:57:51;;;;;;;27.00;10.07;;;;;;;3.36;64.98;101843.91;10385428;28;20050;-64
2023/02/05 04:02:53;;;;;;;26.10;8.93;;;;;;;3.42;64.78;101846.47;10386947;28;20765;-65
2023/02/05 04:07:54;;;;;;;24.38;9.93;;;;;;;3.40;64.87;101843.03;10378062;28;20060;-64
2023/02/05 04:12:56;;;;;;;27.70;10.15;;;;;;;3.39;65.01;101837.88;10375202;28;20045;-64
2023/02/05 04:17:58;;;;;;;27.48;10.43;;;;;;;3.46;65.11;101811.13;10382910;28;20060;-64
2023/02/05 04:22:59;;;;;;;27.90;11.60;;;;;;;3.55;64.84;101793.88;10387640;28;20046;-64
2023/02/05 04:28:01;;;;;;;33.83;11.52;;;;;;;3.49;64.69;101788.72;10379836;28;20049;-65
2023/02/05 04:33:03;;;;;;;22.05;9.98;;;;;;;3.36;64.92;101788.72;10375375;28;20052;-64
2023/02/05 04:38:04;;;;;;;28.60;10.57;;;;;;;3.35;65.06;101794.75;10375717;28;20041;-65
2023/02/05 04:43:06;;;;;;;21.63;9.52;;;;;;;3.33;64.91;101802.53;10375474;28;20112;-64
2023/02/05 04:48:07;;;;;;;24.58;9.98;;;;;;;3.17;65.13;101808.56;10377266;28;20049;-65
2023/02/05 04:53:09;;;;;;;26.20;10.50;;;;;;;3.05;65.79;101814.56;10383325;28;20650;-64
2023/02/05 04:58:11;;;;;;;28.05;10.15;;;;;;;3.07;65.63;101818.91;10387646;28;20057;-65
2023/02/05 05:03:12;;;;;;;24.83;10.27;;;;;;;3.10;65.62;101817.16;10374764;28;20065;-64
2023/02/05 05:08:14;;;;;;;25.42;10.85;;;;;;;3.09;65.76;101823.19;10376231;28;20048;-64
2023/02/05 05:13:16;;;;;;;21.83;10.32;;;;;;;3.16;65.64;101836.97;10385433;28;20045;-65
2023/02/05 05:18:17;;;;;;;23.27;10.20;;;;;;;3.26;65.38;101831.81;10381784;28;20879;-65
2023/02/05 05:23:19;;;;;;;23.60;10.48;;;;;;;3.14;65.96;101839.56;10383650;28;20053;-64
2023/02/05 05:28:20;;;;;;;25.45;11.32;;;;;;;3.12;65.95;101843.88;10374746;28;20594;-64
2023/02/05 05:33:22;;;;;;;27.40;12.40;;;;;;;3.08;66.22;101849.91;10372910;28;20234;-64
2023/02/05 05:38:24;;;;;;;26.98;11.50;;;;;;;3.11;66.26;101849.91;10379056;28;20064;-65
2023/02/05 05:48:47;;;;;;;31.27;12.23;;;;;;;3.41;66.18;101862.00;10373591;28;20056;-65
2023/02/05 05:53:49;;;;;;;32.67;14.80;;;;;;;3.46;66.16;101847.31;10376282;28;20485;-64
2023/02/05 05:58:50;;;;;;;32.72;15.18;;;;;;;3.58;66.06;101819.72;10371565;28;20042;-64
2023/02/05 06:03:52;;;;;;;30.77;13.85;;;;;;;3.69;65.84;101820.59;10375038;28;20096;-64
2023/02/05 06:08:54;;;;;;;32.67;15.73;;;;;;;3.67;65.68;101818.88;10375006;28;20409;-64
2023/02/05 06:13:55;;;;;;;22.67;12.00;;;;;;;3.67;65.74;101821.44;10373746;28;20054;-64
2023/02/05 06:18:57;;;;;;;25.95;12.10;;;;;;;3.76;65.66;101811.09;10378281;28;20065;-65
2023/02/05 06:23:58;;;;;;;29.90;13.95;;;;;;;3.79;65.46;101800.72;10383927;28;20060;-65
2023/02/05 06:29:03;;;;;;;26.70;12.63;;;;;;;3.76;65.54;101790.41;10372568;28;20625;-64
2023/02/05 06:34:04;;;;;;;24.58;11.55;;;;;;;3.72;65.74;101767.97;10373478;28;20044;-65
2023/02/05 06:39:06;;;;;;;25.13;11.45;;;;;;;3.69;65.52;101773.16;10371281;28;21008;-65
2023/02/05 06:44:08;;;;;;;23.77;12.23;;;;;;;3.65;65.63;101768.84;10389893;28;20052;-65
2023/02/05 06:49:09;;;;;;;22.23;11.77;;;;;;;3.41;66.23;101798.22;10374206;28;20506;-65
2023/02/05 06:54:11;;;;;;;25.30;11.75;;;;;;;3.43;66.42;101804.25;10376628;28;20062;-65
2023/02/05 06:59:13;;;;;;;24.55;13.07;;;;;;;3.53;66.28;101805.97;10375364;28;20061;-65
2023/02/05 07:04:14;;;;;;;26.88;13.50;;;;;;;3.55;66.22;101790.44;10377729;28;20410;-64
2023/02/05 07:09:16;;;;;;;27.98;14.48;;;;;;;3.61;65.95;101790.41;10383156;28;20052;-65
2023/02/05 07:14:18;;;;;;;28.40;15.68;;;;;;;3.55;66.18;101788.72;10379775;28;20596;-65
2023/02/05 07:19:19;;;;;;;27.27;13.65;;;;;;;3.42;66.37;101799.06;10383711;28;20053;-65
2023/02/05 07:24:21;;;;;;;25.20;13.40;;;;;;;3.40;66.72;101821.47;10380007;28;20069;-65
2023/02/05 07:29:23;;;;;;;28.58;15.27;;;;;;;3.40;66.71;101806.81;10379410;28;20423;-65
2023/02/05 07:34:24;;;;;;;34.13;17.77;;;;;;;3.56;66.39;101797.31;10379878;28;20368;-65
2023/02/05 07:39:27;;;;;;;31.20;16.15;;;;;;;3.58;66.29;101796.44;10376224;28;20041;-65
2023/02/05 07:44:28;;;;;;;26.75;12.55;;;;;;;3.65;66.30;101776.59;10377177;28;20061;-65
2023/02/05 07:49:30;;;;;;;27.52;13.32;;;;;;;3.50;66.32;101777.50;10375149;28;20421;-65
2023/02/05 07:54:32;;;;;;;22.05;12.07;;;;;;;3.40;66.68;101755.09;10371498;28;20050;-65
2023/02/05 07:59:33;;;;;;;25.25;13.90;;;;;;;3.63;66.28;101752.47;10376265;28;20338;-65
2023/02/05 08:04:35;;;;;;;31.42;15.23;;;;;;;3.45;66.45;101760.28;10376114;28;20052;-65
2023/02/05 08:09:37;;;;;;;27.20;14.75;;;;;;;3.34;66.66;101756.81;10377975;28;20375;-65
2023/02/05 08:14:39;;;;;;;35.50;16.08;;;;;;;3.34;67.18;101749.06;10378015;28;20057;-65
2023/02/05 08:19:41;;;;;;;23.20;14.25;;;;;;;3.59;67.12;101750.75;10378306;28;20046;-65
2023/02/05 08:24:42;;;;;;;24.10;12.70;;;;;;;3.76;67.04;101749.84;10376885;28;20429;-65
2023/02/05 08:29:46;;;;;;;28.13;14.00;;;;;;;3.89;66.79;101761.03;10370208;28;20277;-65
2023/02/05 08:34:48;;;;;;;28.63;14.05;;;;;;;4.09;66.54;101754.06;10369002;28;20052;-65
2023/02/05 08:39:50;;;;;;;30.35;15.27;;;;;;;4.00;66.16;101755.81;10375322;28;20045;-65
2023/02/05 08:44:51;;;;;;;37.08;17.58;;;;;;;4.02;66.34;101756.69;10376640;28;20509;-65
2023/02/05 08:49:53;;;;;;;29.98;16.25;;;;;;;4.01;66.32;101752.34;10369310;28;20522;-65
2023/02/05 08:54:55;;;;;;;40.10;21.92;;;;;;;3.97;66.57;101742.88;10376835;28;20277;-65
2023/02/05 08:59:56;;;;;;;32.20;18.80;;;;;;;4.14;66.30;101734.19;10375202;28;20057;-65
2023/02/05 09:04:58;;;;;;;38.10;18.08;;;;;;;4.16;66.12;101729.88;10378422;28;20054;-65
2023/02/05 09:10:12;;;;;;;37.03;18.73;;;;;;;4.36;66.24;101728.03;10375457;28;20178;-64
2023/02/05 09:15:13;;;;;;;29.27;15.98;;;;;;;4.47;65.99;101718.47;10387403;28;20041;-65
2023/02/05 09:20:15;;;;;;;30.27;17.20;;;;;;;4.44;66.03;101721.06;10376178;28;20069;-65
2023/02/05 09:25:17;;;;;;;37.75;18.80;;;;;;;4.59;65.62;101705.44;10377981;28;20387;-64
2023/02/05 09:30:18;;;;;;;31.33;16.95;;;;;;;4.74;65.45;101694.06;10372470;28;20048;-64
2023/02/05 09:35:20;;;;;;;37.80;19.27;;;;;;;4.63;65.36;101691.59;10373655;28;20046;-65
2023/02/05 09:40:26;;;;;;;39.50;20.67;;;;;;;4.60;65.59;101686.41;10376366;28;20637;-65
2023/02/05 09:45:52;;;;;;;34.45;19.92;;;;;;;4.53;65.84;101686.47;10377558;28;20065;-65
2023/02/05 09:50:56;;;;;;;36.42;19.40;;;;;;;4.66;65.77;101681.19;10372302;28;20052;-65
2023/02/05 09:56:01;;;;;;;32.05;18.92;;;;;;;4.59;65.59;101684.69;10380954;28;20136;-65
2023/02/05 10:01:10;;;;;;;30.85;19.27;;;;;;;4.55;65.81;101688.19;10372573;28;20046;-65
2023/02/05 10:06:42;;;;;;;39.95;20.75;;;;;;;4.54;66.16;101676.09;10372119;28;20492;-65
2023/02/05 10:11:53;;;;;;;29.42;17.00;;;;;;;4.40;66.38;101683.09;10371427;28;20075;-64
2023/02/05 10:17:23;;;;;;;43.67;21.60;;;;;;;4.27;66.60;101676.28;10371408;28;20872;-64
2023/02/05 10:22:39;;;;;;;42.50;23.70;;;;;;;4.19;67.30;101678.03;10367067;28;20056;-64
2023/02/05 10:28:23;;;;;;;24.20;16.20;;;;;;;4.35;67.04;101663.28;10370551;28;20052;-64
2023/02/05 10:33:40;;;;;;;37.05;20.95;;;;;;;4.59;66.36;101651.03;10371438;28;20045;-64
2023/02/05 10:38:44;;;;;;;35.17;19.80;;;;;;;4.64;66.31;101645.78;10365660;28;20056;-64
2023/02/05 10:44:34;;;;;;;28.27;20.02;;;;;;;4.72;66.85;101643.13;10370529;28;20573;-64
2023/02/05 10:49:54;;;;;;;25.25;16.02;;;;;;;4.46;67.58;101639.03;10369862;28;20048;-64
2023/02/05 10:54:56;;;;;;;61.45;27.13;;;;;;;4.60;67.09;101628.53;10378561;28;20045;-64
2023/02/05 11:00:20;;;;;;;40.15;21.67;;;;;;;4.55;67.03;101636.38;10384939;28;20057;-65
2023/02/05 11:05:37;;;;;;;34.35;20.60;;;;;;;4.53;67.62;101625.16;10375462;28;20045;-65
2023/02/05 11:10:39;;;;;;;30.35;19.80;;;;;;;4.70;66.95;101623.25;10369939;28;20208;-65
2023/02/05 11:15:54;;;;;;;28.35;18.58;;;;;;;4.67;66.79;101623.31;10372529;28;20041;-64
2023/02/05 11:21:01;;;;;;;36.20;22.40;;;;;;;4.77;67.09;101618.88;10370684;28;20053;-65
2023/02/05 11:26:16;;;;;;;35.25;22.58;;;;;;;4.93;66.97;101609.22;10370744;28;20052;-65
2023/02/05 11:31:25;;;;;;;33.08;22.40;;;;;;;5.20;66.72;101611.53;10369640;28;20046;-65
2023/02/05 11:36:27;;;;;;;30.17;21.38;;;;;;;5.35;66.60;101611.38;10370857;28;20045;-65
2023/02/05 11:41:50;;;;;;;28.42;20.27;;;;;;;5.33;66.70;101613.97;10366266;28;20404;-65
2023/02/05 11:46:56;;;;;;;32.40;20.65;;;;;;;5.24;66.76;101614.09;10363865;28;20746;-65
2023/02/05 11:51:58;;;;;;;18.95;14.63;;;;;;;5.19;67.47;101610.66;10374511;28;20480;-64
2023/02/05 11:57:18;;;;;;;40.20;24.05;;;;;;;4.97;67.95;101616.09;10373193;28;20065;-65
2023/02/05 12:02:29;;;;;;;21.05;15.00;;;;;;;5.01;68.52;101604.81;10377483;28;20080;-65
2023/02/05 12:07:38;;;;;;;23.00;16.52;;;;;;;5.35;68.03;101608.78;10373675;28;20136;-65
2023/02/05 12:12:55;;;;;;;12.27;6.85;;;;;;;5.54;67.43;101610.25;10379636;28;20492;-64
2023/02/05 12:18:39;;;;;;;6.93;4.97;;;;;;;5.90;67.20;101614.94;10372575;28;20045;-65
2023/02/05 12:24:17;;;;;;;4.45;2.53;;;;;;;5.97;65.88;101615.72;10378321;28;20057;-64
2023/02/05 12:29:42;;;;;;;3.83;2.40;;;;;;;6.45;65.88;101615.00;10373343;28;20413;-64
2023/02/05 12:35:03;;;;;;;4.65;2.03;;;;;;;6.77;65.32;101611.88;10378585;28;20495;-64
2023/02/05 12:40:24;;;;;;;;;;;;;;;6.52;64.88;101608.84;10376439;28;20049;-65
2023/02/05 12:45:50;;;;;;;4.38;1.92;;;;;;;6.86;64.63;101604.78;10394364;28;19948;-64
2023/02/05 12:51:16;;;;;;;4.32;2.13;;;;;;;7.02;63.77;101606.19;10373805;28;20045;-65
2023/02/05 12:56:40;;;;;;;4.10;1.92;;;;;;;6.88;63.33;101596.94;10377917;28;20045;-65
2023/02/05 13:01:49;;;;;;;2.88;1.42;;;;;;;7.18;62.84;101604.19;10373335;28;20517;-65
2023/02/05 13:06:59;;;;;;;2.95;1.60;;;;;;;7.47;62.67;101594.03;10373157;28;20144;-65
2023/02/05 13:12:10;;;;;;;3.15;1.60;;;;;;;7.64;61.89;101598.88;10373101;28;20049;-65
2023/02/05 13:17:16;;;;;;;;;;;;;;;7.42;62.35;101602.81;10383370;28;20413;-65
2023/02/05 13:33:22;;;;;;;2.30;1.50;;;;;;;7.87;61.77;101589.69;10375498;28;20057;-65
2023/02/05 13:38:35;;;;;;;2.67;1.52;;;;;;;7.76;61.31;101591.69;10371091;28;21312;-65
2023/02/05 13:43:56;;;;;;;2.90;1.70;;;;;;;7.72;61.95;101592.63;10372857;28;20072;-65
2023/02/05 13:49:10;;;;;;;2.38;1.50;;;;;;;7.43;62.56;101605.41;10371107;28;20702;-65
2023/02/05 13:54:22;;;;;;;2.22;1.52;;;;;;;7.25;63.24;101608.38;10374385;28;20053;-64
2023/02/05 13:59:29;;;;;;;4.45;1.70;;;;;;;7.09;63.13;101597.41;10374755;28;20108;-64
2023/02/05 14:04:41;;;;;;;2.53;1.50;;;;;;;7.22;62.93;101598.03;10375434;28;20056;-64
2023/02/05 14:09:52;;;;;;;3.22;1.50;;;;;;;7.32;63.24;101596.09;10376107;28;20057;-64
2023/02/05 14:15:18;;;;;;;2.63;1.38;;;;;;;7.27;62.89;101609.19;10375558;28;20485;-65
2023/02/05 14:20:23;;;;;;;2.85;1.67;;;;;;;7.31;63.47;101623.84;10371924;28;20417;-65
2023/02/05 14:25:33;;;;;;;3.00;1.70;;;;;;;7.29;63.50;101620.44;10375146;28;20142;-65
2023/02/05 14:30:44;;;;;;;;;;;;;;;6.94;63.92;101622.81;10375386;28;20520;-64
2023/02/05 14:35:47;;;;;;;3.97;1.63;;;;;;;7.06;63.89;101636.47;10374858;28;19925;-64
2023/02/05 14:41:26;;;;;;;2.67;1.27;;;;;;;6.92;63.83;101638.47;10376745;28;20059;-65
2023/02/05 14:46:27;;;;;;;2.22;1.42;;;;;;;7.01;63.92;101640.91;10370112;28;20140;-65
2023/02/05 14:51:40;;;;;;;2.80;1.60;;;;;;;6.89;64.33;101648.06;10375737;28;20046;-64
2023/02/05 14:56:47;;;;;;;2.90;1.58;;;;;;;6.98;64.16;101651.34;10373301;28;20046;-65
2023/02/05 15:01:51;;;;;;;3.47;1.50;;;;;;;6.85;64.69;101656.81;10370125;28;20097;-64
2023/02/05 15:06:59;;;;;;;4.18;1.83;;;;;;;6.80;65.25;101672.50;10374136;28;20050;-65
2023/02/05 15:12:07;;;;;;;3.05;1.60;;;;;;;6.60;65.39;101681.50;10374138;28;20331;-65
2023/02/05 15:17:09;;;;;;;3.58;1.63;;;;;;;6.48;65.52;101685.16;10385888;28;20049;-65
2023/02/05 15:22:33;;;;;;;3.42;1.80;;;;;;;6.40;65.90;101687.00;10377552;28;20564;-65
2023/02/05 15:27:55;;;;;;;3.33;1.63;;;;;;;6.42;65.75;101690.44;10381533;28;20053;-65
2023/02/05 15:33:02;;;;;;;3.85;1.95;;;;;;;6.54;66.21;101702.38;10378024;28;20053;-65
2023/02/05 15:38:31;;;;;;;3.92;1.60;;;;;;;6.45;66.64;101697.34;10381091;28;20511;-65
2023/02/05 15:43:33;;;;;;;4.50;1.77;;;;;;;6.47;66.44;101708.56;10377140;28;20045;-65
2023/02/05 15:48:38;;;;;;;2.85;1.63;;;;;;;6.52;66.07;101702.41;10377677;28;20289;-65
2023/02/05 15:53:47;;;;;;;2.55;1.80;;;;;;;6.55;66.13;101706.72;10380367;28;20501;-65
2023/02/05 15:58:56;;;;;;;2.28;1.50;;;;;;;6.59;65.88;101724.84;10397390;28;20049;-64
2023/02/05 16:03:58;;;;;;;3.45;1.73;;;;;;;6.51;65.91;101741.44;10376796;28;20561;-65
2023/02/05 16:09:00;;;;;;;3.35;1.83;;;;;;;6.51;66.11;101757.84;10379169;28;20045;-65
2023/02/05 16:14:06;;;;;;;3.65;1.92;;;;;;;6.40;66.12;101761.50;10379100;28;21398;-65
2023/02/05 16:19:17;;;;;;;3.33;1.95;;;;;;;6.35;66.20;101778.00;10379068;28;20052;-65
2023/02/05 16:24:25;;;;;;;3.63;2.17;;;;;;;6.40;66.20;101787.50;10378551;28;20096;-65
2023/02/05 16:29:35;;;;;;;3.83;2.45;;;;;;;6.42;66.44;101788.31;10376400;28;20060;-64
2023/02/05 16:34:48;;;;;;;4.25;2.90;;;;;;;6.30;66.27;101794.56;10380932;28;20102;-65
2023/02/05 16:39:52;;;;;;;4.75;2.83;;;;;;;6.30;66.66;101800.63;10376754;28;20045;-64
2023/02/05 16:45:09;;;;;;;4.78;2.30;;;;;;;6.10;66.57;101812.09;10380643;28;20488;-65
2023/02/05 16:50:41;;;;;;;2.70;1.52;;;;;;;6.01;66.25;101833.81;10379994;28;20688;-65
2023/02/05 16:55:43;;;;;;;2.15;1.40;;;;;;;5.99;66.30;101834.72;10380332;28;20045;-65
2023/02/05 17:01:00;;;;;;;1.83;1.30;;;;;;;5.89;65.78;101846.06;10378479;28;20049;-66
2023/02/05 17:06:07;;;;;;;1.77;1.33;;;;;;;5.91;65.84;101862.50;10378173;28;20427;-65
2023/02/05 17:11:29;;;;;;;2.00;1.48;;;;;;;5.90;65.82;101872.00;10375861;28;20076;-65
2023/02/05 17:16:31;;;;;;;3.97;1.58;;;;;;;5.87;65.24;101882.44;10386422;28;20414;-65
2023/02/05 17:21:36;;;;;;;9.25;1.80;;;;;;;6.00;64.93;101884.03;10371870;28;20435;-66
2023/02/05 17:26:41;;;;;;;2.92;1.40;;;;;;;6.13;64.67;101888.25;10375070;28;20057;-66
2023/02/05 17:31:43;;;;;;;3.67;1.65;;;;;;;6.22;65.09;101898.53;10378521;28;20890;-65
2023/02/05 17:36:45;;;;;;;3.13;1.90;;;;;;;6.15;65.04;101901.22;10372109;28;20482;-65
2023/02/05 17:42:02;;;;;;;4.05;2.20;;;;;;;6.11;64.78;101913.38;10380580;28;20140;-65
2023/02/05 17:47:05;;;;;;;3.15;2.10;;;;;;;6.10;64.79;101923.78;10378323;28;20050;-66
2023/02/05 17:52:08;;;;;;;2.72;1.70;;;;;;;6.02;64.93;101926.44;10377198;28;20389;-65
2023/02/05 17:57:16;;;;;;;2.92;1.83;;;;;;;5.97;64.65;101916.97;10374958;28;20284;-65
2023/02/05 18:02:18;;;;;;;2.80;1.92;;;;;;;5.91;64.81;101927.41;10374843;28;20057;-66
2023/02/05 18:07:50;;;;;;;4.28;2.08;;;;;;;5.91;64.51;101930.88;10375901;28;20293;-65
2023/02/05 18:12:54;;;;;;;5.88;2.28;;;;;;;5.97;64.60;101951.59;10377856;28;20048;-66
2023/02/05 18:17:55;;;;;;;3.53;2.15;;;;;;;5.95;64.44;101958.56;10376509;28;20406;-65
2023/02/05 18:22:57;;;;;;;3.70;2.20;;;;;;;6.04;64.49;101950.66;10377178;28;20056;-65
2023/02/05 18:27:59;;;;;;;3.60;2.17;;;;;;;6.09;64.41;101954.09;10375124;28;20394;-65
2023/02/05 18:33:01;;;;;;;3.60;2.72;;;;;;;6.10;64.33;101963.59;10373562;28;20127;-66
2023/02/05 18:38:02;;;;;;;3.75;2.67;;;;;;;6.00;64.37;101972.34;10374473;28;20057;-65
2023/02/05 18:43:04;;;;;;;3.60;2.33;;;;;;;6.00;63.96;101961.13;10377194;28;20651;-65
2023/02/05 18:48:06;;;;;;;4.38;2.90;;;;;;;6.00;64.22;101946.38;10371390;28;20394;-66
2023/02/05 18:53:07;;;;;;;4.20;2.58;;;;;;;5.92;64.35;101961.16;10372718;28;20049;-65
2023/02/05 18:58:09;;;;;;;4.68;3.13;;;;;;;6.00;64.24;101961.13;10375491;28;20049;-65
2023/02/05 19:03:10;;;;;;;4.10;2.90;;;;;;;6.03;63.77;101967.13;10382420;28;20049;-65
2023/02/05 19:08:12;;;;;;;5.88;2.80;;;;;;;5.91;63.91;101963.78;10401261;28;20418;-65
2023/02/05 19:13:14;;;;;;;4.38;2.70;;;;;;;5.85;63.85;101975.09;10382230;28;20069;-65
2023/02/05 19:18:16;;;;;;;4.50;2.40;;;;;;;5.84;63.80;101975.94;10384444;28;20060;-65
2023/02/05 19:23:18;;;;;;;4.88;2.40;;;;;;;5.77;63.75;101969.09;10381586;28;20057;-65
2023/02/05 19:28:20;;;;;;;4.28;2.42;;;;;;;5.71;63.84;101989.91;10380926;28;20475;-65
2023/02/05 19:33:21;;;;;;;4.13;2.40;;;;;;;5.78;63.99;101996.75;10379457;28;20047;-65
2023/02/05 19:38:23;;;;;;;4.82;2.70;;;;;;;5.83;63.51;102005.38;10385852;28;20049;-65
2023/02/05 19:43:24;;;;;;;3.35;2.25;;;;;;;5.78;63.30;102007.16;10377145;28;20445;-66
2023/02/05 19:48:27;;;;;;;3.65;2.53;;;;;;;5.85;63.71;102018.34;10379357;28;20412;-65
2023/02/05 19:53:29;;;;;;;4.85;2.70;;;;;;;5.71;63.57;102015.88;10376646;28;20046;-65
2023/02/05 19:58:39;;;;;;;5.20;2.88;;;;;;;5.74;63.50;102009.81;10381774;28;20037;-65
2023/02/05 20:03:43;;;;;;;6.55;3.17;;;;;;;5.77;63.54;102008.03;10380939;28;20501;-66
2023/02/05 20:08:46;;;;;;;4.72;2.90;;;;;;;5.74;63.76;102022.78;10383496;28;20209;-65
2023/02/05 20:13:48;;;;;;;7.45;3.22;;;;;;;5.71;63.82;102017.59;10381707;28;20056;-65
2023/02/05 20:18:55;;;;;;;3.83;2.60;;;;;;;5.61;63.64;102022.00;10377235;28;20425;-66
2023/02/05 20:23:57;;;;;;;4.38;2.90;;;;;;;5.50;63.68;102018.59;10380840;28;20508;-65
2023/02/05 20:34:24;;;;;;;3.72;2.70;;;;;;;5.19;64.38;102040.34;10382373;28;20632;-65
2023/02/05 20:39:27;;;;;;;4.72;2.65;;;;;;;5.23;64.26;102039.47;10376931;28;20049;-65
2023/02/05 20:44:32;;;;;;;4.38;2.80;;;;;;;5.36;64.19;102056.72;10373516;28;20064;-65
2023/02/05 20:49:35;;;;;;;4.80;3.10;;;;;;;5.44;64.21;102055.81;10379488;28;20099;-65
2023/02/05 20:54:37;;;;;;;6.65;3.20;;;;;;;5.49;64.18;102061.00;10373881;28;20045;-66
2023/02/05 20:59:39;;;;;;;4.38;3.15;;;;;;;5.50;64.36;102063.56;10378101;28;20060;-66
2023/02/05 21:04:42;;;;;;;4.55;3.20;;;;;;;5.50;64.42;102065.31;10379373;28;20164;-65
2023/02/05 21:09:46;;;;;;;5.68;3.70;;;;;;;5.58;64.18;102060.94;10378298;28;20501;-66
2023/02/05 21:14:49;;;;;;;7.90;4.50;;;;;;;5.60;64.29;102059.19;10385726;28;20053;-66
2023/02/05 21:19:53;;;;;;;4.97;2.70;;;;;;;5.52;63.80;102072.22;10379813;28;20500;-66
2023/02/05 21:24:58;;;;;;;4.85;2.80;;;;;;;5.58;63.40;102076.50;10372475;28;20136;-65
2023/02/05 21:30:01;;;;;;;5.18;3.15;;;;;;;5.68;63.60;102070.38;10376040;28;20509;-65
2023/02/05 21:35:04;;;;;;;6.93;3.03;;;;;;;5.74;63.54;102078.13;10372169;28;20045;-65
2023/02/05 21:40:09;;;;;;;4.00;2.63;;;;;;;5.71;63.15;102075.56;10373089;28;20057;-65
2023/02/05 21:45:11;;;;;;;3.80;2.38;;;;;;;5.60;63.26;102079.94;10375697;28;20050;-65
2023/02/05 21:50:13;;;;;;;2.88;2.03;;;;;;;5.52;62.83;102087.78;10377233;28;20053;-65
2023/02/05 21:55:14;;;;;;;3.92;2.35;;;;;;;5.59;62.90;102095.53;10372313;28;20502;-65
2023/02/05 22:00:16;;;;;;;3.72;2.28;;;;;;;5.67;62.63;102101.56;10379651;28;20057;-65
2023/02/05 22:05:18;;;;;;;3.50;2.00;;;;;;;5.66;62.29;102102.41;10373507;28;20059;-65
2023/02/05 22:10:21;;;;;;;5.63;2.40;;;;;;;5.65;62.35;102111.97;10376516;28;20049;-64
2023/02/05 22:15:22;;;;;;;3.90;2.00;;;;;;;5.69;62.07;102113.66;10372135;28;20124;-65
2023/02/05 22:20:24;;;;;;;3.63;2.00;;;;;;;5.78;62.24;102117.94;10376039;28;20048;-64
2023/02/05 22:25:26;;;;;;;3.67;1.98;;;;;;;5.71;61.80;102122.31;10375305;28;20524;-64
2023/02/05 22:30:27;;;;;;;3.63;2.08;;;;;;;5.70;61.64;102122.28;10370176;28;20052;-65
2023/02/05 22:35:29;;;;;;;4.50;2.28;;;;;;;5.81;61.88;102121.38;10374518;28;20049;-65
2023/02/05 22:40:32;;;;;;;3.95;2.30;;;;;;;5.91;61.78;102123.06;10372071;28;20041;-64
2023/02/05 22:45:33;;;;;;;3.97;2.38;;;;;;;5.85;61.56;102130.88;10374650;28;20049;-64
2023/02/05 22:50:43;;;;;;;3.50;2.58;;;;;;;5.63;61.11;102129.28;10372722;28;20120;-65
2023/02/05 22:55:45;;;;;;;3.90;2.90;;;;;;;5.69;62.05;102150.00;10374210;28;20524;-65
2023/02/05 23:00:46;;;;;;;5.18;2.83;;;;;;;5.70;61.51;102145.66;10373403;28;20556;-64
2023/02/05 23:05:49;;;;;;;3.80;2.80;;;;;;;5.68;61.95;102145.66;10372736;28;20237;-64
2023/02/05 23:10:51;;;;;;;4.53;3.17;;;;;;;5.74;61.86;102137.84;10374722;28;20049;-65
2023/02/05 23:15:52;;;;;;;4.18;3.10;;;;;;;5.78;61.87;102142.16;10372529;28;20600;-64
2023/02/05 23:20:54;;;;;;;4.80;3.05;;;;;;;5.81;62.07;102149.94;10376919;28;20038;-64
2023/02/05 23:25:55;;;;;;;4.18;2.70;;;;;;;5.80;61.88;102147.38;10375353;28;20049;-64
2023/02/05 23:30:57;;;;;;;3.45;2.40;;;;;;;5.71;62.02;102144.81;10374662;28;20044;-64
2023/02/05 23:36:00;;;;;;;3.40;2.42;;;;;;;5.67;61.69;102156.06;10374201;28;20045;-64
2023/02/05 23:41:03;;;;;;;3.10;2.10;;;;;;;5.61;61.37;102149.19;10370898;28;20056;-64
2023/02/05 23:46:05;;;;;;;3.92;2.30;;;;;;;5.58;61.54;102149.19;10378970;28;20056;-64
2023/02/05 23:51:07;;;;;;;3.58;2.33;;;;;;;5.57;61.62;102143.13;10376259;28;20052;-64
2023/02/05 23:56:09;;;;;;;4.38;2.05;;;;;;;5.52;61.68;102151.78;10380888;28;20409;-64
